Aeroporto :
LOGIN :

Iscrizione | Disclaimer

   EN    FR    IT 

 










Sommario :    VFR   VFR Marginale   IFR   IFR Intensivo   IFR Molto Intensivo
Visibilità : 
Base nubi : 
>= 8 km
>= 3000ft
5 / 8 km
1000 / 3000 ft
1500m / 5 km
500 / 1000 ft
800 / 1500m
200 / 500 ft
< 800m
< 200 ft
Simboli :   Temporali  Nebbia  Neve Forte  Precipitazioni Forti  Vento > 20 kt
SIGMETs :   Varie  Temporali  Ghiacco  Turbolenza  Onda orograficha  Ceneri Vulcaniche







- Altitudine del aeroporto : 82 ft
- Codice IATA : QIE
- Carte del aeroporto


LFMI - Istres

ULTIMO METAR :
  • 201300Z AUTO 26003KT 210V300 9999 SCT035 14/05 Q1025 NOSIG

METARs OBSOLETI :
  • 201230Z AUTO VRB03KT 9999 SCT034 14/06 Q1025 NOSIG
  • 201200Z AUTO 26004KT 210V300 9999 FEW032 14/05 Q1026 NOSIG
  • 201130Z AUTO VRB02KT 9999 FEW031 13/05 Q1026 NOSIG
  • 201100Z AUTO VRB01KT CAVOK 13/07 Q1026 NOSIG
  • 201030Z AUTO VRB02KT CAVOK 13/06 Q1026 NOSIG

TAF TAF LFMI
Valido dal 20 a 09 ore il 21 a 09 ore UTC


200800Z 2009/2109 VRB04KT CAVOK
TEMPO 2022/2109 1500 BR NSC
Nessun NOTAM noto per questo aeroporto.



MetMap, La meteo Aeronautica in un colpo d'occhio ! - Copyright ORBIFLY Dicembre 2007 - Disclaimer

ORBIFLY MET'MAP TEAM :

Programmazione e sviluppo : Alexandra Zaïnal
Concezione e sviluppo : Baudouin d'Aumeries
Co-Programmazione e sviluppo : Marc-Olivier Méhu
Supporto tecnico e logistico : Manuel Goepfert
Aiuto per la traduzione : Arnaldo La Scala

Contatto : metmap@orbifly.com




FONTI E CREDITI :

   NOAA